Time;durP1;ratioP1;P1;durP2;ratioP2;P2;SDS_P1;SDS_P2;PMS_P1;PMS_P2;Temp;Humidity;BMP_temperature;BMP_pressure;BME280_temperature;BME280_humidity;BME280_pressure;Samples;Min_cycle;Max_cycle;Signal;HPM_P1;HPM_P2
2024/01/13 00:02:06;;;;;;;39.28;36.92;;;;;;;4.57;67.84;102837.31;5014350;28;20433;-74
2024/01/13 00:04:32;;;;;;;37.60;34.95;;;;;;;4.57;67.90;102837.31;5023646;28;20029;-76
2024/01/13 00:06:57;;;;;;;38.88;36.33;;;;;;;4.56;68.03;102831.09;5017166;28;20204;-76
2024/01/13 00:09:23;;;;;;;40.03;37.85;;;;;;;4.58;67.72;102828.28;5032476;28;20075;-74
2024/01/13 00:11:48;;;;;;;37.03;34.83;;;;;;;4.57;68.01;102831.94;5035681;28;20064;-76
2024/01/13 00:14:13;;;;;;;40.85;38.08;;;;;;;4.57;68.15;102819.41;5033088;28;20099;-77
2024/01/13 00:16:39;;;;;;;40.55;38.22;;;;;;;4.57;68.06;102824.75;5030355;28;20087;-73
2024/01/13 00:19:05;;;;;;;40.80;38.25;;;;;;;4.56;67.83;102820.38;5045887;28;20460;-74
2024/01/13 00:21:30;;;;;;;37.03;34.63;;;;;;;4.57;67.76;102815.88;5035553;28;20576;-74
2024/01/13 00:23:56;;;;;;;40.55;37.42;;;;;;;4.56;67.85;102823.06;5021361;28;20040;-76
2024/01/13 00:26:22;;;;;;;39.30;36.83;;;;;;;4.58;67.82;102825.59;5016709;28;20036;-75
2024/01/13 00:28:47;;;;;;;39.80;37.13;;;;;;;4.58;67.76;102820.25;5043892;28;20674;-76
2024/01/13 00:31:13;;;;;;;41.35;38.45;;;;;;;4.58;67.76;102821.06;5041041;28;20033;-76
2024/01/13 00:33:43;;;;;;;38.72;36.22;;;;;;;4.58;67.79;102812.22;5018252;28;20096;-75
2024/01/13 00:36:09;;;;;;;39.53;36.95;;;;;;;4.59;67.85;102811.22;5023807;28;20029;-75
2024/01/13 00:38:34;;;;;;;44.00;41.42;;;;;;;4.59;67.64;102805.88;5023169;28;20092;-74
2024/01/13 00:40:59;;;;;;;38.33;36.15;;;;;;;4.58;67.73;102806.84;5027176;28;20393;-75
2024/01/13 00:43:25;;;;;;;41.42;38.83;;;;;;;4.58;67.72;102802.34;5032660;28;20041;-74
2024/01/13 00:45:50;;;;;;;41.78;38.80;;;;;;;4.59;67.41;102803.19;5032981;28;20034;-74
2024/01/13 00:48:16;;;;;;;37.88;35.63;;;;;;;4.59;67.72;102795.16;5015794;28;20030;-75
2024/01/13 00:50:41;;;;;;;36.90;34.55;;;;;;;4.58;67.68;102780.09;5032698;28;20110;-74
2024/01/13 00:53:06;;;;;;;33.35;31.70;;;;;;;4.55;67.33;102779.41;5031849;28;20033;-74
2024/01/13 00:55:32;;;;;;;42.45;39.83;;;;;;;4.56;67.44;102777.56;5033188;28;20048;-75
2024/01/13 00:57:57;;;;;;;37.65;35.65;;;;;;;4.56;67.51;102780.22;5034763;28;20079;-75
2024/01/13 01:00:22;;;;;;;45.50;42.67;;;;;;;4.54;67.30;102777.72;5032012;28;20280;-76
2024/01/13 01:02:48;;;;;;;40.65;38.33;;;;;;;4.55;67.66;102778.56;5025593;28;20487;-74
2024/01/13 01:05:13;;;;;;;39.67;37.40;;;;;;;4.55;67.67;102776.72;5039992;28;20034;-75
2024/01/13 01:07:38;;;;;;;38.42;36.05;;;;;;;4.56;67.35;102782.91;5025931;28;20033;-75
2024/01/13 01:10:04;;;;;;;39.95;37.05;;;;;;;4.57;67.32;102778.41;5032332;28;20037;-75
2024/01/13 01:12:30;;;;;;;40.33;37.60;;;;;;;4.57;67.35;102779.25;5028851;28;20541;-75
2024/01/13 01:14:55;;;;;;;38.55;36.25;;;;;;;4.57;67.66;102776.59;5023564;28;20037;-75
2024/01/13 01:17:21;;;;;;;38.60;36.40;;;;;;;4.58;67.46;102761.34;5024836;28;20029;-73
2024/01/13 01:19:46;;;;;;;35.72;33.70;;;;;;;4.58;67.41;102766.72;5042857;28;20037;-74
2024/01/13 01:22:11;;;;;;;40.38;37.97;;;;;;;4.56;67.52;102764.16;5020044;28;20505;-74
2024/01/13 01:24:37;;;;;;;40.83;38.22;;;;;;;4.58;67.19;102767.53;5033865;28;20065;-74
2024/01/13 01:27:02;;;;;;;40.08;37.97;;;;;;;4.57;67.30;102765.88;5031986;28;20406;-75
2024/01/13 01:29:28;;;;;;;38.55;36.05;;;;;;;4.58;67.24;102759.50;5032733;28;20041;-75
2024/01/13 01:31:53;;;;;;;37.67;35.55;;;;;;;4.59;67.19;102752.34;5015738;28;20044;-75
2024/01/13 01:34:19;;;;;;;36.65;34.17;;;;;;;4.59;67.15;102755.03;5033133;28;20577;-75
2024/01/13 01:36:44;;;;;;;35.35;33.13;;;;;;;4.58;67.27;102745.28;5014843;28;20543;-76
2024/01/13 01:39:10;;;;;;;38.58;36.17;;;;;;;4.58;66.94;102742.63;5026552;28;20121;-74
2024/01/13 01:41:35;;;;;;;38.60;36.28;;;;;;;4.58;67.05;102747.97;5020288;28;20048;-75
2024/01/13 01:44:01;;;;;;;39.03;36.40;;;;;;;4.58;67.11;102739.94;5026978;28;20040;-75
2024/01/13 01:46:30;;;;;;;43.08;40.58;;;;;;;4.58;67.09;102740.78;5024990;28;20117;-74
2024/01/13 01:48:58;;;;;;;37.22;35.13;;;;;;;4.58;67.08;102729.22;5016580;28;20038;-75
2024/01/13 01:51:25;;;;;;;42.33;40.03;;;;;;;4.57;66.77;102736.44;5018463;28;20458;-75
2024/01/13 01:53:51;;;;;;;38.92;36.58;;;;;;;4.58;67.08;102737.25;5019981;28;20029;-74
2024/01/13 01:56:23;;;;;;;39.83;37.47;;;;;;;4.59;67.09;102734.44;5022493;28;20025;-74
2024/01/13 01:58:51;;;;;;;36.67;34.63;;;;;;;4.57;66.85;102728.41;5018949;28;20034;-74
2024/01/13 02:01:17;;;;;;;37.17;34.97;;;;;;;4.57;67.06;102731.06;5037484;28;20039;-74
2024/01/13 02:03:43;;;;;;;39.58;37.05;;;;;;;4.57;67.06;102727.56;5046243;28;20060;-75
2024/01/13 02:06:09;;;;;;;42.20;39.53;;;;;;;4.57;66.87;102728.41;5023447;28;20064;-74
2024/01/13 02:08:36;;;;;;;41.38;37.47;;;;;;;4.59;67.05;102729.09;5024130;28;20478;-74
2024/01/13 02:11:01;;;;;;;41.72;39.47;;;;;;;4.58;66.87;102719.38;5045150;28;20523;-74
2024/01/13 02:13:26;;;;;;;39.85;37.42;;;;;;;4.58;66.88;102713.19;5042212;28;20033;-75
2024/01/13 02:15:52;;;;;;;36.53;34.55;;;;;;;4.58;66.98;102703.31;5032581;28;20041;-74
2024/01/13 02:18:18;;;;;;;42.03;39.10;;;;;;;4.58;66.85;102703.31;5031103;28;20064;-74
2024/01/13 02:20:43;;;;;;;38.70;36.17;;;;;;;4.57;66.83;102720.38;5026045;28;20148;-74
2024/01/13 02:23:08;;;;;;;37.53;35.58;;;;;;;4.57;67.06;102714.19;5040253;28;20033;-73
2024/01/13 02:25:34;;;;;;;37.13;34.92;;;;;;;4.58;66.83;102714.00;5042847;28;20033;-74
2024/01/13 02:27:59;;;;;;;37.95;35.90;;;;;;;4.58;66.92;102705.16;5014965;28;20037;-74
2024/01/13 02:30:25;;;;;;;38.08;36.03;;;;;;;4.57;66.72;102700.81;5036493;28;20039;-74
2024/01/13 02:32:50;;;;;;;35.47;33.72;;;;;;;4.55;66.79;102693.75;5031551;28;20493;-74
2024/01/13 02:35:16;;;;;;;39.42;37.35;;;;;;;4.55;66.61;102687.56;5036791;28;20128;-74
2024/01/13 02:37:41;;;;;;;36.05;34.05;;;;;;;4.54;67.00;102692.09;5035558;28;20026;-74
2024/01/13 02:40:09;;;;;;;38.60;36.60;;;;;;;4.54;66.90;102684.06;5030520;28;20393;-75
2024/01/13 02:42:35;;;;;;;38.65;36.38;;;;;;;4.55;66.61;102687.56;5012542;28;20036;-73
2024/01/13 02:45:00;;;;;;;34.33;32.40;;;;;;;4.54;66.79;102676.03;5045360;28;20037;-74
2024/01/13 02:47:43;;;;;;;40.22;38.22;;;;;;;4.54;66.60;102680.53;5031404;28;20057;-74
2024/01/13 02:50:09;;;;;;;34.75;32.78;;;;;;;4.52;66.85;102672.66;5021332;28;20113;-74
2024/01/13 02:52:34;;;;;;;39.42;37.42;;;;;;;4.53;66.28;102673.50;5028370;28;20056;-77
2024/01/13 02:55:00;;;;;;;34.58;32.22;;;;;;;4.53;66.55;102673.50;5030717;28;20076;-73
2024/01/13 02:57:26;;;;;;;38.85;36.85;;;;;;;4.51;66.58;102673.66;5036134;28;20396;-74
2024/01/13 02:59:51;;;;;;;38.65;36.60;;;;;;;4.52;66.45;102663.78;5026401;28;20454;-74
2024/01/13 03:02:17;;;;;;;39.47;37.38;;;;;;;4.51;66.23;102660.28;5018439;28;20038;-74
2024/01/13 03:04:42;;;;;;;37.33;35.30;;;;;;;4.52;66.19;102664.63;5029940;28;20026;-73
2024/01/13 03:07:08;;;;;;;34.35;32.70;;;;;;;4.54;66.21;102661.81;5024423;28;20060;-73
2024/01/13 03:09:33;;;;;;;34.65;32.90;;;;;;;4.54;66.46;102659.13;5028907;28;20033;-74
2024/01/13 03:11:59;;;;;;;36.08;33.97;;;;;;;4.52;66.57;102650.41;5042260;28;20043;-76
2024/01/13 03:14:24;;;;;;;38.25;36.03;;;;;;;4.53;66.54;102638.69;5019374;28;20120;-74
2024/01/13 03:16:50;;;;;;;39.53;37.47;;;;;;;4.51;66.46;102630.84;5020162;28;20120;-73
2024/01/13 03:19:15;;;;;;;34.72;32.90;;;;;;;4.51;66.01;102632.66;5028855;28;20034;-74
2024/01/13 03:21:41;;;;;;;35.35;33.42;;;;;;;4.52;66.52;102629.00;5037588;28;20378;-73
2024/01/13 03:24:06;;;;;;;33.88;32.08;;;;;;;4.51;66.16;102616.59;5035193;28;20087;-74
2024/01/13 03:26:31;;;;;;;36.13;34.42;;;;;;;4.50;66.32;102607.75;5004978;28;20037;-73
2024/01/13 03:28:57;;;;;;;34.95;33.25;;;;;;;4.51;66.20;102600.53;5029807;28;20470;-75
2024/01/13 03:31:22;;;;;;;35.80;34.08;;;;;;;4.50;65.93;102602.38;5032632;28;20041;-74
2024/01/13 03:33:48;;;;;;;39.13;37.05;;;;;;;4.51;66.09;102597.88;5016285;28;20067;-73
2024/01/13 03:36:13;;;;;;;33.63;31.73;;;;;;;4.52;66.40;102594.22;5032247;28;20466;-74
2024/01/13 03:38:39;;;;;;;36.20;34.28;;;;;;;4.52;66.23;102597.72;5025786;28;20048;-75
2024/01/13 03:41:04;;;;;;;36.55;34.75;;;;;;;4.53;66.12;102603.91;5037303;28;20134;-74
2024/01/13 03:43:30;;;;;;;36.20;34.30;;;;;;;4.54;66.51;102590.38;5033130;28;20108;-74
2024/01/13 03:45:55;;;;;;;37.08;35.25;;;;;;;4.54;66.21;102589.53;5046147;28;20041;-74
2024/01/13 03:48:21;;;;;;;34.22;32.53;;;;;;;4.54;66.28;102585.03;5020058;28;20521;-73
2024/01/13 03:50:46;;;;;;;38.65;36.45;;;;;;;4.52;66.13;102579.00;5044753;28;20034;-73
2024/01/13 03:53:12;;;;;;;37.80;35.97;;;;;;;4.54;66.03;102581.53;5031540;28;20038;-74
2024/01/13 03:55:38;;;;;;;35.47;33.28;;;;;;;4.53;66.18;102583.34;5043995;28;20128;-75
2024/01/13 03:58:03;;;;;;;33.20;31.55;;;;;;;4.55;65.93;102585.88;5034180;28;20104;-74
2024/01/13 04:00:29;;;;;;;35.15;33.00;;;;;;;4.56;66.13;102582.19;5019212;28;20535;-74
2024/01/13 04:02:54;;;;;;;36.95;34.92;;;;;;;4.55;66.09;102578.66;5029934;28;20428;-73
2024/01/13 04:05:20;;;;;;;38.42;36.40;;;;;;;4.55;66.25;102575.16;5035263;28;20389;-74
2024/01/13 04:07:46;;;;;;;37.92;35.95;;;;;;;4.56;66.40;102566.13;5033579;28;20522;-74
2024/01/13 04:10:11;;;;;;;37.58;35.72;;;;;;;4.55;66.12;102567.97;5007116;28;20037;-74
2024/01/13 04:12:39;;;;;;;38.08;36.22;;;;;;;4.55;66.11;102573.31;5010652;28;20037;-74
2024/01/13 04:15:05;;;;;;;34.63;32.92;;;;;;;4.57;66.11;102572.34;5032993;28;20076;-74
2024/01/13 04:17:30;;;;;;;37.88;35.88;;;;;;;4.57;66.22;102562.47;5018477;28;20501;-74
2024/01/13 04:19:56;;;;;;;38.63;36.42;;;;;;;4.58;66.18;102561.44;5033382;28;20405;-74
2024/01/13 04:22:21;;;;;;;36.97;35.17;;;;;;;4.58;66.10;102558.78;5042206;28;20096;-73
2024/01/13 04:24:46;;;;;;;38.22;36.03;;;;;;;4.59;66.14;102554.28;5016182;28;20077;-75
2024/01/13 04:27:12;;;;;;;38.25;35.72;;;;;;;4.60;66.40;102561.31;5033384;28;20466;-73
2024/01/13 04:29:37;;;;;;;34.83;33.13;;;;;;;4.60;66.03;102554.13;5017794;28;20114;-74
2024/01/13 04:32:03;;;;;;;33.08;31.38;;;;;;;4.61;66.27;102541.56;5022580;28;20076;-73
2024/01/13 04:34:28;;;;;;;31.17;29.48;;;;;;;4.59;65.91;102544.41;5032155;28;20504;-73
2024/01/13 04:36:54;;;;;;;38.80;36.60;;;;;;;4.60;66.17;102537.22;5030909;28;20045;-74
2024/01/13 04:39:19;;;;;;;39.60;37.45;;;;;;;4.59;66.19;102536.38;5025656;28;20401;-74
2024/01/13 04:41:44;;;;;;;37.45;35.40;;;;;;;4.59;66.08;102532.88;5037403;28;20460;-73
2024/01/13 04:44:10;;;;;;;38.05;36.08;;;;;;;4.59;66.15;102532.88;5028399;28;20034;-73
2024/01/13 04:46:35;;;;;;;39.40;37.40;;;;;;;4.60;66.29;102527.34;4997073;28;20045;-74
2024/01/13 04:49:01;;;;;;;34.35;32.55;;;;;;;4.60;65.69;102527.34;5033653;28;20136;-74
2024/01/13 04:51:26;;;;;;;39.00;37.10;;;;;;;4.60;66.27;102529.19;5036559;28;20477;-75
2024/01/13 04:53:51;;;;;;;43.22;40.72;;;;;;;4.60;65.91;102534.53;5029256;28;20044;-75
2024/01/13 04:56:17;;;;;;;35.50;33.17;;;;;;;4.59;65.91;102525.69;5017836;28;20060;-74
2024/01/13 04:58:42;;;;;;;38.30;36.30;;;;;;;4.60;66.22;102524.66;5035667;28;20038;-74
2024/01/13 05:01:08;;;;;;;35.60;33.90;;;;;;;4.62;65.93;102517.31;5030487;28;20034;-73
2024/01/13 05:03:34;;;;;;;41.20;38.65;;;;;;;4.61;66.06;102512.97;5030454;28;20466;-73
2024/01/13 05:06:00;;;;;;;37.40;35.38;;;;;;;4.62;65.76;102514.66;5032851;28;20033;-74
2024/01/13 05:08:26;;;;;;;38.58;36.40;;;;;;;4.61;66.07;102525.50;5016019;28;20042;-75
2024/01/13 05:10:51;;;;;;;39.17;36.95;;;;;;;4.61;66.13;102517.47;5034531;28;20063;-74
2024/01/13 05:13:17;;;;;;;34.67;32.88;;;;;;;4.61;65.86;102518.34;5015393;28;20037;-73
2024/01/13 05:15:42;;;;;;;37.97;35.88;;;;;;;4.61;65.81;102518.34;5037388;28;20520;-73
2024/01/13 05:18:08;;;;;;;38.55;36.45;;;;;;;4.62;66.00;102519.16;5025520;28;20029;-73
2024/01/13 05:20:34;;;;;;;38.45;36.33;;;;;;;4.63;66.22;102526.19;5031182;28;20033;-73
2024/01/13 05:23:00;;;;;;;38.60;36.50;;;;;;;4.65;65.95;102535.72;5039352;28;20051;-74
2024/01/13 05:25:25;;;;;;;39.38;37.10;;;;;;;4.65;65.84;102518.84;5031199;28;20116;-73
2024/01/13 05:27:50;;;;;;;37.70;35.30;;;;;;;4.65;65.95;102514.31;5031415;28;20397;-74
2024/01/13 05:30:16;;;;;;;38.38;36.20;;;;;;;4.67;65.84;102516.84;5012605;28;20045;-73
2024/01/13 05:32:41;;;;;;;38.05;35.55;;;;;;;4.66;65.97;102518.69;4999908;28;20098;-74
2024/01/13 05:35:07;;;;;;;41.17;38.92;;;;;;;4.67;65.98;102514.19;5029655;28;20133;-74
2024/01/13 05:37:33;;;;;;;39.35;37.28;;;;;;;4.68;65.96;102510.50;5023269;28;20030;-76
2024/01/13 05:39:59;;;;;;;40.45;38.08;;;;;;;4.68;66.04;102511.31;5023233;28;20041;-74
2024/01/13 05:42:25;;;;;;;37.65;35.45;;;;;;;4.67;65.82;102509.66;5026269;28;20164;-74
2024/01/13 05:44:51;;;;;;;43.33;40.92;;;;;;;4.68;65.88;102514.00;5026405;28;20116;-76
2024/01/13 05:47:16;;;;;;;39.90;37.53;;;;;;;4.69;65.90;102509.50;5018796;28;20124;-74
2024/01/13 05:49:43;;;;;;;36.92;34.85;;;;;;;4.68;65.86;102505.97;5021486;28;20030;-74
2024/01/13 05:52:10;;;;;;;41.80;39.08;;;;;;;4.69;66.28;102510.34;5018431;28;20037;-75
2024/01/13 05:54:38;;;;;;;37.33;35.42;;;;;;;4.69;65.92;102512.19;5029838;28;20041;-75
2024/01/13 05:57:03;;;;;;;41.67;39.10;;;;;;;4.69;66.15;102517.53;5040001;28;20041;-74
2024/01/13 05:59:29;;;;;;;42.55;39.63;;;;;;;4.68;66.43;102514.00;5013299;28;20293;-74
2024/01/13 06:01:54;;;;;;;44.63;42.10;;;;;;;4.68;66.11;102527.38;5016205;28;20073;-74
2024/01/13 06:04:20;;;;;;;40.13;37.55;;;;;;;4.68;66.07;102522.03;5026773;28;20033;-74
2024/01/13 06:06:45;;;;;;;39.15;36.83;;;;;;;4.69;66.40;102528.25;5015770;28;20112;-75
2024/01/13 06:09:11;;;;;;;43.10;39.90;;;;;;;4.69;66.16;102531.75;5031830;28;20084;-75
2024/01/13 06:11:40;;;;;;;37.88;35.80;;;;;;;4.70;66.22;102525.38;5038129;28;20048;-75
2024/01/13 06:14:06;;;;;;;42.80;40.03;;;;;;;4.69;66.36;102518.38;5018765;28;20497;-74
2024/01/13 06:16:31;;;;;;;38.55;36.65;;;;;;;4.70;66.26;102503.97;5031033;28;20068;-74
2024/01/13 06:18:57;;;;;;;42.10;39.42;;;;;;;4.70;65.92;102498.63;5038764;28;20041;-73
2024/01/13 06:21:23;;;;;;;38.20;35.97;;;;;;;4.69;66.14;102496.94;5042056;28;20033;-75
2024/01/13 06:23:49;;;;;;;40.83;38.63;;;;;;;4.69;66.06;102483.56;5033997;28;20030;-74
2024/01/13 06:26:14;;;;;;;43.38;40.97;;;;;;;4.69;66.14;102486.25;5048443;28;20029;-74
2024/01/13 06:28:39;;;;;;;41.80;39.38;;;;;;;4.71;66.22;102475.34;5012022;28;20033;-76
2024/01/13 06:31:05;;;;;;;38.80;36.42;;;;;;;4.70;66.29;102466.50;5018805;28;20045;-76
2024/01/13 06:33:30;;;;;;;36.17;34.38;;;;;;;4.71;65.86;102461.97;5018107;28;20042;-76
2024/01/13 06:35:57;;;;;;;39.90;37.45;;;;;;;4.71;66.14;102470.00;5022403;28;20089;-75
2024/01/13 06:38:23;;;;;;;38.05;35.65;;;;;;;4.71;66.06;102472.69;5030478;28;20098;-75
2024/01/13 06:40:48;;;;;;;40.10;37.92;;;;;;;4.70;65.87;102479.06;5033876;28;20043;-75
2024/01/13 06:43:14;;;;;;;38.22;35.80;;;;;;;4.71;66.18;102468.19;5018276;28;20041;-77
2024/01/13 06:45:39;;;;;;;38.47;36.15;;;;;;;4.72;66.18;102464.50;5039686;28;20491;-78
2024/01/13 06:48:05;;;;;;;44.38;41.92;;;;;;;4.72;65.95;102458.31;5030140;28;20041;-75
2024/01/13 06:50:30;;;;;;;40.83;38.33;;;;;;;4.74;65.93;102465.19;5026022;28;20473;-76
2024/01/13 06:52:56;;;;;;;38.80;36.85;;;;;;;4.73;65.80;102458.13;5013970;28;20359;-75
2024/01/13 06:55:24;;;;;;;38.35;36.38;;;;;;;4.74;66.10;102445.63;5012602;28;20040;-74
2024/01/13 06:57:51;;;;;;;34.28;32.00;;;;;;;4.72;65.85;102416.31;5028794;28;20374;-75
2024/01/13 07:00:17;;;;;;;39.03;36.83;;;;;;;4.71;65.67;102424.50;5015315;28;20091;-75
2024/01/13 07:02:44;;;;;;;37.28;35.10;;;;;;;4.71;65.85;102424.50;5027264;28;20029;-75
2024/01/13 07:05:10;;;;;;;43.15;40.35;;;;;;;4.71;65.95;102422.69;5021548;28;20029;-75
2024/01/13 07:07:36;;;;;;;39.40;37.17;;;;;;;4.71;65.75;102430.72;5030558;28;20041;-75
2024/01/13 07:10:01;;;;;;;35.95;34.10;;;;;;;4.72;66.12;102407.44;5021768;28;20025;-79
2024/01/13 07:12:27;;;;;;;38.50;36.22;;;;;;;4.70;65.76;102388.88;5009529;28;20040;-75
2024/01/13 07:14:52;;;;;;;35.70;34.00;;;;;;;4.69;65.90;102395.22;5030443;28;20041;-74
2024/01/13 07:17:17;;;;;;;43.22;40.35;;;;;;;4.69;65.89;102395.22;5019346;28;20036;-76
2024/01/13 07:19:43;;;;;;;39.97;37.72;;;;;;;4.70;66.01;102394.22;5015978;28;20098;-74
2024/01/13 07:22:08;;;;;;;38.80;36.70;;;;;;;4.71;65.79;102398.59;5020636;28;20040;-75
2024/01/13 07:24:34;;;;;;;36.28;34.22;;;;;;;4.71;65.97;102395.06;5039131;28;20034;-76
2024/01/13 07:26:59;;;;;;;38.22;36.03;;;;;;;4.71;65.71;102387.03;5013600;28;20029;-76
2024/01/13 07:29:24;;;;;;;45.05;40.00;;;;;;;4.70;65.69;102394.22;5030682;28;20034;-75
2024/01/13 07:31:50;;;;;;;36.80;34.92;;;;;;;4.69;65.80;102378.34;5027194;28;20128;-75
2024/01/13 07:34:15;;;;;;;39.28;36.42;;;;;;;4.70;65.80;102377.31;5040950;28;20385;-78
2024/01/13 07:36:41;;;;;;;37.30;35.17;;;;;;;4.70;65.61;102382.69;5041060;28;20409;-76
2024/01/13 07:39:09;;;;;;;39.97;37.83;;;;;;;4.70;65.79;102385.34;5046172;28;20045;-75
2024/01/13 07:41:35;;;;;;;40.83;38.03;;;;;;;4.70;66.08;102390.72;5032257;28;20064;-78
2024/01/13 07:44:01;;;;;;;36.53;34.30;;;;;;;4.71;65.60;102381.66;5022619;28;20090;-76
2024/01/13 07:46:26;;;;;;;40.90;38.80;;;;;;;4.72;65.75;102375.34;5029850;28;20457;-76
2024/01/13 07:48:52;;;;;;;39.58;37.47;;;;;;;4.70;65.75;102370.13;5031515;28;20497;-75
2024/01/13 07:51:18;;;;;;;41.03;38.80;;;;;;;4.70;65.85;102366.63;5011264;28;20044;-76
2024/01/13 07:53:44;;;;;;;37.92;35.83;;;;;;;4.70;66.03;102353.25;5020369;28;20492;-75
2024/01/13 07:56:10;;;;;;;40.13;37.55;;;;;;;4.71;65.85;102352.22;5024445;28;20034;-75
2024/01/13 07:58:36;;;;;;;39.92;37.88;;;;;;;4.71;65.58;102357.56;5020872;28;20037;-75
2024/01/13 08:01:04;;;;;;;42.45;40.22;;;;;;;4.70;65.90;102358.59;5047127;28;20111;-74
2024/01/13 08:03:29;;;;;;;36.33;34.00;;;;;;;4.71;65.79;102370.97;5033779;28;20514;-74
2024/01/13 08:05:55;;;;;;;41.03;38.70;;;;;;;4.70;65.92;102362.09;5013870;28;20069;-76
2024/01/13 08:08:20;;;;;;;36.60;34.25;;;;;;;4.71;65.69;102358.44;5027871;28;20029;-75
2024/01/13 08:10:46;;;;;;;40.83;38.72;;;;;;;4.72;65.75;102354.75;5029376;28;20033;-74
2024/01/13 08:13:13;;;;;;;48.28;45.15;;;;;;;4.72;66.01;102341.38;5020290;28;20025;-75
2024/01/13 08:15:39;;;;;;;38.38;36.53;;;;;;;4.72;65.73;102341.38;5024564;28;20533;-74
2024/01/13 08:18:05;;;;;;;39.38;37.30;;;;;;;4.72;65.78;102327.16;5022283;28;20125;-75
2024/01/13 08:20:30;;;;;;;40.33;37.80;;;;;;;4.72;65.69;102337.84;5023446;28;20042;-76
2024/01/13 08:22:55;;;;;;;42.53;40.08;;;;;;;4.73;65.80;102339.50;5019916;28;22841;-75
2024/01/13 08:25:21;;;;;;;37.20;35.10;;;;;;;4.73;65.92;102328.81;5013809;28;20125;-73
2024/01/13 08:27:46;;;;;;;38.50;36.30;;;;;;;4.72;66.08;102324.47;5022101;28;20041;-74
2024/01/13 08:30:12;;;;;;;40.22;38.00;;;;;;;4.71;65.93;102317.41;5027904;28;20033;-75
2024/01/13 08:32:39;;;;;;;39.50;37.40;;;;;;;4.71;65.82;102320.97;5031637;28;20378;-76
2024/01/13 08:35:07;;;;;;;41.20;38.72;;;;;;;4.72;65.95;102313.75;5031673;28;20173;-74
2024/01/13 08:37:32;;;;;;;35.13;33.30;;;;;;;4.74;65.87;102325.16;5026322;28;20115;-74
2024/01/13 08:39:58;;;;;;;40.97;38.15;;;;;;;4.76;66.13;102329.34;5037704;28;20425;-74
2024/01/13 08:42:23;;;;;;;41.50;38.88;;;;;;;4.76;66.25;102321.31;5027208;28;20424;-77
2024/01/13 08:44:49;;;;;;;40.40;38.00;;;;;;;4.78;66.08;102321.94;5000385;28;20471;-74
2024/01/13 08:47:15;;;;;;;42.45;39.45;;;;;;;4.78;66.04;102323.78;5040859;28;20029;-74
2024/01/13 08:49:40;;;;;;;36.95;34.88;;;;;;;4.77;66.20;102328.31;5014061;28;20091;-74
2024/01/13 08:52:08;;;;;;;42.80;39.47;;;;;;;4.76;66.00;102331.16;5027327;28;20065;-76
2024/01/13 08:54:35;;;;;;;41.35;38.50;;;;;;;4.76;66.01;102331.16;5038902;28;20091;-75
2024/01/13 08:57:00;;;;;;;36.15;33.72;;;;;;;4.76;65.95;102337.38;5033307;28;20037;-74
2024/01/13 08:59:26;;;;;;;44.08;40.72;;;;;;;4.78;65.94;102335.34;5010514;28;20088;-75
2024/01/13 09:01:51;;;;;;;37.88;35.88;;;;;;;4.80;66.07;102326.31;5029342;28;20041;-74
2024/01/13 09:04:17;;;;;;;40.83;38.55;;;;;;;4.82;66.00;102332.34;5031034;28;20046;-73
2024/01/13 09:06:43;;;;;;;39.35;36.85;;;;;;;4.83;65.92;102332.16;5030232;28;20112;-74
2024/01/13 09:09:09;;;;;;;38.42;36.30;;;;;;;4.83;65.95;102324.13;5032246;28;20128;-75
2024/01/13 09:11:34;;;;;;;40.25;37.75;;;;;;;4.83;65.78;102334.00;5040421;28;20029;-75
2024/01/13 09:14:00;;;;;;;38.47;35.88;;;;;;;4.82;66.01;102335.03;5028229;28;20029;-74
2024/01/13 09:16:25;;;;;;;45.58;42.55;;;;;;;4.81;65.81;102327.97;5012174;28;20057;-74
2024/01/13 09:18:50;;;;;;;41.38;38.70;;;;;;;4.81;66.21;102331.50;5023060;28;20037;-74
2024/01/13 09:21:17;;;;;;;39.58;37.28;;;;;;;4.83;65.92;102336.69;5038098;28;20041;-75
2024/01/13 09:23:42;;;;;;;42.00;39.42;;;;;;;4.85;66.07;102329.34;5037445;28;20489;-74
2024/01/13 09:26:08;;;;;;;39.63;37.38;;;;;;;4.85;66.05;102327.50;5038389;28;20057;-74
2024/01/13 09:28:33;;;;;;;41.95;38.97;;;;;;;4.85;66.01;102321.31;5033623;28;20504;-74
2024/01/13 09:30:58;;;;;;;43.88;41.22;;;;;;;4.87;65.95;102321.97;5026983;28;20038;-75
2024/01/13 09:33:24;;;;;;;44.40;41.58;;;;;;;4.86;66.08;102331.00;5032145;28;20052;-75
2024/01/13 09:35:50;;;;;;;41.30;38.63;;;;;;;4.87;66.00;102333.53;5028642;28;20413;-74
2024/01/13 09:38:15;;;;;;;46.45;43.70;;;;;;;4.89;66.14;102336.00;5031419;28;20121;-76
2024/01/13 09:40:41;;;;;;;42.83;39.70;;;;;;;4.89;65.97;102330.66;5037630;28;20060;-74
2024/01/13 09:43:09;;;;;;;35.70;33.88;;;;;;;4.90;65.71;102329.69;5034383;28;20040;-80
2024/01/13 09:45:38;;;;;;;43.60;40.63;;;;;;;4.89;66.31;102325.31;5036178;28;20036;-74
2024/01/13 09:48:08;;;;;;;42.15;39.58;;;;;;;4.87;66.11;102327.34;5030043;28;20474;-74
2024/01/13 09:50:35;;;;;;;43.22;40.55;;;;;;;4.88;65.96;102332.50;5047474;28;20045;-74
2024/01/13 09:53:07;;;;;;;38.17;36.05;;;;;;;4.87;66.09;102324.66;5035349;28;20385;-73
2024/01/13 09:55:34;;;;;;;40.63;38.17;;;;;;;4.87;66.11;102317.47;5028142;28;20436;-74
2024/01/13 09:57:59;;;;;;;42.03;39.65;;;;;;;4.88;66.09;102308.41;5032546;28;20037;-72
2024/01/13 10:00:30;;;;;;;37.25;35.20;;;;;;;4.89;66.00;102310.09;5035813;28;20109;-73
2024/01/13 10:02:56;;;;;;;42.03;39.45;;;;;;;4.87;66.26;102301.41;5026058;28;20159;-73
2024/01/13 10:05:21;;;;;;;40.17;37.88;;;;;;;4.88;66.00;102312.94;5024628;28;20048;-73
2024/01/13 10:07:52;;;;;;;37.22;35.13;;;;;;;4.88;65.77;102299.53;5028412;28;20048;-74
2024/01/13 10:10:19;;;;;;;41.58;38.97;;;;;;;4.90;66.17;102305.56;5029726;28;20116;-73
2024/01/13 10:12:44;;;;;;;41.53;39.38;;;;;;;4.90;66.25;102292.19;5027126;28;20072;-74
2024/01/13 10:15:16;;;;;;;39.88;37.58;;;;;;;4.89;66.10;102299.38;5028508;28;20124;-74
2024/01/13 10:17:42;;;;;;;44.85;42.25;;;;;;;4.90;66.09;102298.38;5026513;28;20061;-74
2024/01/13 10:20:11;;;;;;;43.72;41.15;;;;;;;4.92;65.89;102298.22;5030368;28;20033;-72
2024/01/13 10:22:37;;;;;;;40.30;37.80;;;;;;;4.93;66.25;102297.22;5027409;28;20165;-74
2024/01/13 10:25:03;;;;;;;38.80;36.60;;;;;;;4.92;65.95;102290.19;5029540;28;20045;-74
2024/01/13 10:27:29;;;;;;;42.28;39.83;;;;;;;4.93;65.94;102286.50;5011305;28;20509;-74
2024/01/13 10:29:55;;;;;;;39.63;37.25;;;;;;;4.93;66.00;102290.00;5024482;28;20421;-73
2024/01/13 10:32:21;;;;;;;41.53;39.22;;;;;;;4.93;66.28;102283.81;5025741;28;20037;-72
2024/01/13 10:34:48;;;;;;;45.13;42.17;;;;;;;4.94;66.26;102280.97;5028240;28;20435;-74
2024/01/13 10:37:13;;;;;;;42.60;39.97;;;;;;;4.95;66.01;102287.16;5023957;28;20087;-73
2024/01/13 10:39:41;;;;;;;45.50;42.30;;;;;;;4.95;66.28;102289.84;5028581;28;20069;-73
2024/01/13 10:42:09;;;;;;;46.53;43.38;;;;;;;4.96;66.27;102280.78;5027215;28;20037;-74
2024/01/13 10:44:40;;;;;;;43.78;40.83;;;;;;;4.99;66.07;102283.16;5029049;28;20042;-73
2024/01/13 10:47:14;;;;;;;43.95;41.22;;;;;;;4.98;66.32;102268.09;5026546;28;20033;-75
2024/01/13 10:49:41;;;;;;;45.47;42.25;;;;;;;4.99;65.88;102267.09;5027746;28;20027;-72
2024/01/13 10:52:07;;;;;;;44.58;41.65;;;;;;;4.99;66.10;102265.25;5029249;28;20134;-73
2024/01/13 10:54:34;;;;;;;47.03;43.40;;;;;;;4.98;66.21;102268.91;5029649;28;20389;-73
2024/01/13 10:56:59;;;;;;;40.35;38.10;;;;;;;4.97;66.21;102271.78;5028842;28;20043;-73
2024/01/13 10:59:32;;;;;;;42.63;39.63;;;;;;;4.98;66.04;102262.72;5029223;28;20029;-74
2024/01/13 11:01:59;;;;;;;40.88;37.95;;;;;;;4.99;66.15;102259.88;5029854;28;20036;-72
2024/01/13 11:04:24;;;;;;;43.38;40.83;;;;;;;4.99;66.22;102251.03;5026104;28;20034;-73
2024/01/13 11:06:51;;;;;;;40.03;37.72;;;;;;;5.01;66.28;102261.56;5027605;28;20436;-73
2024/01/13 11:09:18;;;;;;;43.45;40.70;;;;;;;4.99;66.38;102254.53;5024202;28;20128;-72
2024/01/13 11:12:10;;;;;;;45.05;42.03;;;;;;;5.00;66.18;102255.38;5026765;28;20049;-74